Time;durP1;ratioP1;P1;durP2;ratioP2;P2;SDS_P1;SDS_P2;PMS_P1;PMS_P2;Temp;Humidity;BMP_temperature;BMP_pressure;BME280_temperature;BME280_humidity;BME280_pressure;Samples;Min_cycle;Max_cycle;Signal;HPM_P1;HPM_P2
2022/11/14 00:02:04;;;;;;;60.78;33.83;;;;;;;;;;5095934;28;20051;-66
2022/11/14 00:04:30;;;;;;;60.03;32.78;;;;;;;;;;5093821;28;20055;-66
2022/11/14 00:06:56;;;;;;;60.15;33.45;;;;;;;;;;5094819;27;20592;-66
2022/11/14 00:09:26;;;;;;;57.90;32.92;;;;;;;;;;5098967;27;20054;-66
2022/11/14 00:11:52;;;;;;;61.53;32.97;;;;;;;;;;5091608;27;20044;-66
2022/11/14 00:14:19;;;;;;;60.85;33.65;;;;;;;;;;5090849;28;20528;-66
2022/11/14 00:16:45;;;;;;;58.65;33.00;;;;;;;;;;5094697;27;20547;-66
2022/11/14 00:19:11;;;;;;;64.55;33.38;;;;;;;;;;5090904;27;20075;-66
2022/11/14 00:21:37;;;;;;;55.83;32.85;;;;;;;;;;5101939;27;20148;-65
2022/11/14 00:24:03;;;;;;;57.85;33.53;;;;;;;;;;5089844;28;20044;-65
2022/11/14 00:26:29;;;;;;;56.95;32.63;;;;;;;;;;5094396;27;20050;-66
2022/11/14 00:28:55;;;;;;;58.70;34.22;;;;;;;;;;5096166;27;20169;-66
2022/11/14 00:31:21;;;;;;;56.85;33.60;;;;;;;;;;5094148;27;20047;-66
2022/11/14 00:33:47;;;;;;;57.15;33.75;;;;;;;;;;5092665;27;20052;-67
2022/11/14 00:36:13;;;;;;;59.50;33.58;;;;;;;;;;5091364;28;20040;-66
2022/11/14 00:38:39;;;;;;;58.83;35.13;;;;;;;;;;5099638;27;20401;-66
2022/11/14 00:41:05;;;;;;;54.95;32.58;;;;;;;;;;5094569;27;20050;-67
2022/11/14 00:43:31;;;;;;;60.80;34.30;;;;;;;;;;5094263;28;20286;-66
2022/11/14 00:45:57;;;;;;;54.75;33.92;;;;;;;;;;5093209;27;20646;-66
2022/11/14 00:48:23;;;;;;;57.38;34.13;;;;;;;;;;5093995;27;20051;-65
2022/11/14 00:50:49;;;;;;;56.25;34.50;;;;;;;;;;5093186;27;20043;-65
2022/11/14 00:53:15;;;;;;;60.83;35.63;;;;;;;;;;5091519;27;20417;-65
2022/11/14 00:55:42;;;;;;;61.03;36.72;;;;;;;;;;5096735;27;20088;-68
2022/11/14 00:58:08;;;;;;;58.55;34.47;;;;;;;;;;5090250;28;20039;-67
2022/11/14 01:00:35;;;;;;;63.45;37.40;;;;;;;;;;5093527;27;20040;-66
2022/11/14 01:03:01;;;;;;;58.72;36.40;;;;;;;;;;5089474;28;20387;-67
2022/11/14 01:05:27;;;;;;;59.42;37.85;;;;;;;;;;5093507;28;20062;-66
2022/11/14 01:07:53;;;;;;;61.67;37.40;;;;;;;;;;5092483;28;20055;-66
2022/11/14 01:10:20;;;;;;;59.35;37.28;;;;;;;;;;5092034;27;20509;-67
2022/11/14 01:12:46;;;;;;;63.00;37.28;;;;;;;;;;5089512;27;20085;-66
2022/11/14 01:15:12;;;;;;;63.90;40.65;;;;;;;;;;5092878;27;20047;-67
2022/11/14 01:17:38;;;;;;;58.72;37.75;;;;;;;;;;5092268;28;20036;-66
2022/11/14 01:20:05;;;;;;;62.45;38.33;;;;;;;;;;5091460;28;22133;-64
2022/11/14 01:22:31;;;;;;;62.75;39.65;;;;;;;;;;5094683;27;20043;-67
2022/11/14 01:24:57;;;;;;;64.45;39.42;;;;;;;;;;5095961;27;20053;-66
2022/11/14 01:27:24;;;;;;;65.50;39.35;;;;;;;;;;5091178;27;20055;-67
2022/11/14 01:29:50;;;;;;;62.03;38.00;;;;;;;;;;5094506;27;20052;-68
2022/11/14 01:32:16;;;;;;;59.63;38.00;;;;;;;;;;5094372;28;20494;-67
2022/11/14 01:34:42;;;;;;;62.70;39.53;;;;;;;;;;5088199;28;20079;-66
2022/11/14 01:37:08;;;;;;;63.00;39.28;;;;;;;;;;5088638;28;20117;-67
2022/11/14 01:39:34;;;;;;;62.67;37.17;;;;;;;;;;5095158;27;20035;-66
2022/11/14 01:42:00;;;;;;;60.08;37.75;;;;;;;;;;5098117;27;20051;-66
2022/11/14 01:44:45;;;;;;;58.95;37.90;;;;;;;;;;5092247;27;20048;-67
2022/11/14 01:47:13;;;;;;;59.67;36.33;;;;;;;;;;5097533;27;20052;-66
2022/11/14 01:49:41;;;;;;;58.42;37.78;;;;;;;;;;5092336;27;20481;-67
2022/11/14 01:52:10;;;;;;;63.80;38.95;;;;;;;;;;5093092;28;20498;-65
2022/11/14 01:54:37;;;;;;;59.33;37.60;;;;;;;;;;5091230;28;20062;-67
2022/11/14 01:57:04;;;;;;;58.38;36.85;;;;;;;;;;5094879;28;20103;-67
2022/11/14 01:59:32;;;;;;;60.30;38.70;;;;;;;;;;5096673;27;20043;-66
2022/11/14 02:01:59;;;;;;;61.00;38.78;;;;;;;;;;5092477;28;20051;-67
2022/11/14 02:04:34;;;;;;;58.35;38.50;;;;;;;;;;5087682;28;20085;-66
2022/11/14 02:07:01;;;;;;;61.42;39.63;;;;;;;;;;5089162;28;20108;-65
2022/11/14 02:09:28;;;;;;;60.72;39.72;;;;;;;;;;5092166;28;20058;-66
2022/11/14 02:11:55;;;;;;;68.95;41.45;;;;;;;;;;5091940;28;20650;-67
2022/11/14 02:14:21;;;;;;;65.95;41.47;;;;;;;;;;5088154;28;21210;-66
2022/11/14 02:16:47;;;;;;;76.95;44.17;;;;;;;;;;5091591;28;20051;-67
2022/11/14 02:19:14;;;;;;;71.93;43.70;;;;;;;;;;5096800;28;20525;-67
2022/11/14 02:21:40;;;;;;;79.28;44.20;;;;;;;;;;5098639;28;20040;-67
2022/11/14 02:24:10;;;;;;;83.25;45.67;;;;;;;;;;5089059;28;20115;-67
2022/11/14 02:26:37;;;;;;;78.45;45.50;;;;;;;;;;5094617;28;20040;-66
2022/11/14 02:29:03;;;;;;;87.90;48.40;;;;;;;;;;5096616;28;20378;-67
2022/11/14 02:31:29;;;;;;;81.32;46.83;;;;;;;;;;5091305;28;20429;-67
2022/11/14 02:33:55;;;;;;;85.82;47.55;;;;;;;;;;5088558;28;20036;-66
2022/11/14 02:36:21;;;;;;;84.78;47.47;;;;;;;;;;5088612;28;20051;-65
2022/11/14 02:38:47;;;;;;;83.63;46.78;;;;;;;;;;5093742;28;20537;-66
2022/11/14 02:41:13;;;;;;;86.43;47.83;;;;;;;;;;5090760;28;20040;-66
2022/11/14 02:43:39;;;;;;;83.47;47.90;;;;;;;;;;5089042;28;20058;-65
2022/11/14 02:46:05;;;;;;;83.40;47.05;;;;;;;;;;5097700;28;20077;-66
2022/11/14 02:48:32;;;;;;;86.40;47.30;;;;;;;;;;5092985;28;20056;-66
2022/11/14 02:50:58;;;;;;;88.47;49.08;;;;;;;;;;5092057;28;20164;-66
2022/11/14 02:53:24;;;;;;;86.65;47.92;;;;;;;;;;5092856;28;20047;-66
2022/11/14 02:55:50;;;;;;;88.57;49.20;;;;;;;;;;5090520;28;20040;-66
2022/11/14 02:58:16;;;;;;;85.28;47.88;;;;;;;;;;5091408;28;20375;-66
2022/11/14 03:00:42;;;;;;;87.50;48.72;;;;;;;;;;5096899;27;20048;-67
2022/11/14 03:03:08;;;;;;;87.55;49.33;;;;;;;;;;5092313;27;20071;-66
2022/11/14 03:05:34;;;;;;;89.85;49.63;;;;;;;;;;5094876;27;20048;-66
2022/11/14 03:08:00;;;;;;;88.03;48.13;;;;;;;;;;5098939;27;20068;-65
2022/11/14 03:10:26;;;;;;;83.82;45.97;;;;;;;;;;5095612;28;20082;-67
2022/11/14 03:12:55;;;;;;;87.97;47.38;;;;;;;;;;5094223;27;20058;-66
2022/11/14 03:15:21;;;;;;;85.85;46.70;;;;;;;;;;5095114;27;20048;-67
2022/11/14 03:17:47;;;;;;;84.88;47.53;;;;;;;;;;5094674;27;20044;-66
2022/11/14 03:20:13;;;;;;;85.65;47.58;;;;;;;;;;5094429;28;20055;-67
2022/11/14 03:22:39;;;;;;;83.95;47.42;;;;;;;;;;5093765;28;20175;-66
2022/11/14 03:25:05;;;;;;;87.55;48.50;;;;;;;;;;5090105;28;20044;-66
2022/11/14 03:27:31;;;;;;;80.13;46.97;;;;;;;;;;5094996;27;20044;-67
2022/11/14 03:29:57;;;;;;;80.22;45.15;;;;;;;;;;5099939;27;20421;-67
2022/11/14 03:32:23;;;;;;;79.47;48.20;;;;;;;;;;5096670;27;20056;-65
2022/11/14 03:34:49;;;;;;;85.22;48.22;;;;;;;;;;5093613;27;20129;-67
2022/11/14 03:37:15;;;;;;;87.15;48.30;;;;;;;;;;5091529;27;20043;-65
2022/11/14 03:39:41;;;;;;;90.20;50.35;;;;;;;;;;5093318;27;20123;-67
2022/11/14 03:42:08;;;;;;;93.32;51.80;;;;;;;;;;5093101;27;20040;-66
2022/11/14 03:44:34;;;;;;;92.60;51.58;;;;;;;;;;5094357;28;20139;-67
2022/11/14 03:47:00;;;;;;;94.38;52.65;;;;;;;;;;5095485;27;20166;-66
2022/11/14 03:49:26;;;;;;;92.18;50.97;;;;;;;;;;5095362;28;20473;-66
2022/11/14 03:51:52;;;;;;;92.88;52.95;;;;;;;;;;5093342;28;20055;-66
2022/11/14 03:54:18;;;;;;;93.63;53.25;;;;;;;;;;5093382;28;20359;-65
2022/11/14 03:56:44;;;;;;;87.57;50.90;;;;;;;;;;5097614;27;20125;-66
2022/11/14 03:59:10;;;;;;;88.13;50.38;;;;;;;;;;5092009;27;20487;-67
2022/11/14 04:01:36;;;;;;;93.78;51.75;;;;;;;;;;5093240;27;20047;-66
2022/11/14 04:04:02;;;;;;;90.55;52.65;;;;;;;;;;5097144;27;20043;-66
2022/11/14 04:06:28;;;;;;;100.00;54.22;;;;;;;;;;5091790;27;21729;-66
2022/11/14 04:08:55;;;;;;;91.75;51.65;;;;;;;;;;5094601;27;20044;-67
2022/11/14 04:11:21;;;;;;;89.65;50.67;;;;;;;;;;5092216;28;20040;-67
2022/11/14 04:13:47;;;;;;;97.38;52.88;;;;;;;;;;5089907;28;20047;-67
2022/11/14 04:16:13;;;;;;;90.05;52.13;;;;;;;;;;5094230;28;20052;-67
2022/11/14 04:18:39;;;;;;;87.22;50.58;;;;;;;;;;5095705;28;20094;-67
2022/11/14 04:21:05;;;;;;;90.13;50.33;;;;;;;;;;5088925;28;20051;-66
2022/11/14 04:23:31;;;;;;;84.07;50.40;;;;;;;;;;5092313;28;20134;-66
2022/11/14 04:25:57;;;;;;;89.53;50.53;;;;;;;;;;5095401;27;20134;-66
2022/11/14 04:28:23;;;;;;;83.28;50.20;;;;;;;;;;5091429;27;20044;-66
2022/11/14 04:30:49;;;;;;;88.07;49.85;;;;;;;;;;5113983;27;20056;-68
2022/11/14 04:33:15;;;;;;;85.57;50.30;;;;;;;;;;5094666;27;20440;-67
2022/11/14 04:35:41;;;;;;;87.88;50.88;;;;;;;;;;5101048;27;20046;-66
2022/11/14 04:38:07;;;;;;;86.35;48.85;;;;;;;;;;5092927;28;20402;-67
2022/11/14 04:40:33;;;;;;;82.22;47.28;;;;;;;;;;5094050;27;20048;-67
2022/11/14 04:42:59;;;;;;;88.53;50.33;;;;;;;;;;5091180;27;20570;-68
2022/11/14 04:45:25;;;;;;;83.00;48.55;;;;;;;;;;5096509;28;20039;-66
2022/11/14 04:47:51;;;;;;;83.55;48.67;;;;;;;;;;5096917;27;20134;-67
2022/11/14 04:50:17;;;;;;;88.20;49.47;;;;;;;;;;5093476;27;20181;-66
2022/11/14 04:52:43;;;;;;;82.28;48.15;;;;;;;;;;5093750;27;20131;-65
2022/11/14 04:55:09;;;;;;;87.25;49.88;;;;;;;;;;5093711;27;20035;-67
2022/11/14 04:57:35;;;;;;;83.93;49.08;;;;;;;;;;5089847;28;20363;-66
2022/11/14 05:00:02;;;;;;;83.72;47.80;;;;;;;;;;5088244;28;20043;-65
2022/11/14 05:02:30;;;;;;;84.32;49.22;;;;;;;;;;5091650;28;20048;-66
2022/11/14 05:04:56;;;;;;;82.05;47.25;;;;;;;;;;5096593;27;20493;-66
2022/11/14 05:07:22;;;;;;;82.32;48.63;;;;;;;;;;5095513;28;20127;-66
2022/11/14 05:09:48;;;;;;;81.43;48.13;;;;;;;;;;5095785;27;20407;-67
2022/11/14 05:12:14;;;;;;;84.25;49.08;;;;;;;;;;5089234;27;20052;-66
2022/11/14 05:14:40;;;;;;;81.15;47.35;;;;;;;;;;5095669;28;20043;-66
2022/11/14 05:17:06;;;;;;;86.45;48.90;;;;;;;;;;5096788;27;20423;-67
2022/11/14 05:19:32;;;;;;;83.72;48.95;;;;;;;;;;5095258;28;20036;-66
2022/11/14 05:21:58;;;;;;;87.35;48.78;;;;;;;;;;5089783;28;20082;-66
2022/11/14 05:24:25;;;;;;;82.60;49.78;;;;;;;;;;5093160;27;20048;-67
2022/11/14 05:26:51;;;;;;;88.35;48.80;;;;;;;;;;5094050;27;20498;-66
2022/11/14 05:29:17;;;;;;;78.88;46.42;;;;;;;;;;5094994;28;20036;-66
2022/11/14 05:31:43;;;;;;;82.38;46.38;;;;;;;;;;5095133;27;20035;-66
2022/11/14 05:34:08;;;;;;;83.53;48.13;;;;;;;;;;5091322;28;20048;-67
2022/11/14 05:36:34;;;;;;;83.85;47.67;;;;;;;;;;5091127;28;20032;-66
2022/11/14 05:39:00;;;;;;;76.28;45.70;;;;;;;;;;5088834;28;20135;-66
2022/11/14 05:41:26;;;;;;;83.20;47.20;;;;;;;;;;5089095;28;20054;-67
2022/11/14 05:43:52;;;;;;;82.10;48.97;;;;;;;;;;5095721;28;20050;-67
2022/11/14 05:46:18;;;;;;;79.32;46.47;;;;;;;;;;5077960;27;20561;-68
2022/11/14 05:48:44;;;;;;;80.45;48.13;;;;;;;;;;5101683;27;20091;-65
2022/11/14 05:51:12;;;;;;;83.28;48.78;;;;;;;;;;5092077;27;20100;-66
2022/11/14 05:53:38;;;;;;;85.53;47.92;;;;;;;;;;5089163;27;20055;-66
2022/11/14 05:56:05;;;;;;;83.03;48.05;;;;;;;;;;5093614;28;20036;-67
2022/11/14 05:58:31;;;;;;;86.22;49.10;;;;;;;;;;5096428;28;20167;-66
2022/11/14 06:01:01;;;;;;;81.60;48.28;;;;;;;;;;5093929;28;20539;-66
2022/11/14 06:03:30;;;;;;;84.07;49.03;;;;;;;;;;5092290;28;20047;-67
2022/11/14 06:05:56;;;;;;;81.18;46.45;;;;;;;;;;5092151;28;20058;-67
2022/11/14 06:08:22;;;;;;;84.82;48.17;;;;;;;;;;5092043;28;20047;-66
2022/11/14 06:10:48;;;;;;;86.75;49.42;;;;;;;;;;5091292;28;20044;-66
2022/11/14 06:13:14;;;;;;;87.00;48.30;;;;;;;;;;5094497;28;20130;-66
2022/11/14 06:15:40;;;;;;;88.43;48.95;;;;;;;;;;5096621;28;20097;-67
2022/11/14 06:18:06;;;;;;;88.75;49.10;;;;;;;;;;5091426;28;20052;-67
2022/11/14 06:20:32;;;;;;;83.30;48.05;;;;;;;;;;5087673;28;20043;-67
2022/11/14 06:22:58;;;;;;;89.80;48.60;;;;;;;;;;5086500;28;20039;-66
2022/11/14 06:25:24;;;;;;;87.60;48.22;;;;;;;;;;5093301;28;20047;-67
2022/11/14 06:27:50;;;;;;;84.05;47.17;;;;;;;;;;5091949;28;20185;-65
2022/11/14 06:30:16;;;;;;;93.28;47.83;;;;;;;;;;5091724;28;20051;-66
2022/11/14 06:32:42;;;;;;;87.80;48.20;;;;;;;;;;5094543;28;20415;-67
2022/11/14 06:35:08;;;;;;;84.63;47.53;;;;;;;;;;5093574;28;20092;-66
2022/11/14 06:37:37;;;;;;;90.13;48.85;;;;;;;;;;5096240;28;20040;-66
2022/11/14 06:40:03;;;;;;;86.45;48.35;;;;;;;;;;5099218;27;20048;-66
2022/11/14 06:42:29;;;;;;;88.25;48.17;;;;;;;;;;5094076;27;20044;-66
2022/11/14 06:44:55;;;;;;;86.47;46.30;;;;;;;;;;5097341;27;20066;-66
2022/11/14 06:47:21;;;;;;;82.78;45.63;;;;;;;;;;5097058;28;20116;-66
2022/11/14 06:49:47;;;;;;;84.78;46.30;;;;;;;;;;5098080;27;20059;-66
2022/11/14 06:52:13;;;;;;;82.60;46.30;;;;;;;;;;5097115;27;20553;-67
2022/11/14 06:54:39;;;;;;;85.88;44.78;;;;;;;;;;5096701;27;20057;-66
2022/11/14 06:57:05;;;;;;;82.45;46.30;;;;;;;;;;5099648;27;20075;-65
2022/11/14 06:59:31;;;;;;;85.68;46.45;;;;;;;;;;5104157;27;20039;-67
2022/11/14 07:01:57;;;;;;;82.07;44.13;;;;;;;;;;5093315;28;20071;-68
2022/11/14 07:04:23;;;;;;;77.85;42.60;;;;;;;;;;5097074;27;20044;-64
2022/11/14 07:06:49;;;;;;;81.72;44.55;;;;;;;;;;5110551;27;20082;-66
2022/11/14 07:09:15;;;;;;;83.05;44.67;;;;;;;;;;5107229;27;20067;-66
2022/11/14 07:11:41;;;;;;;81.97;45.42;;;;;;;;;;5115962;27;20126;-66
2022/11/14 07:14:08;;;;;;;88.45;45.28;;;;;;;;;;5117866;27;20133;-66
2022/11/14 07:16:35;;;;;;;86.20;45.92;;;;;;;;;;5119372;27;20039;-66
2022/11/14 07:19:02;;;;;;;84.55;45.08;;;;;;;;;;5117888;27;20084;-66
2022/11/14 07:21:28;;;;;;;84.10;45.95;;;;;;;;;;5111571;27;20058;-66
2022/11/14 07:23:54;;;;;;;77.00;43.15;;;;;;;;;;5113063;27;20086;-66
2022/11/14 07:26:20;;;;;;;85.95;44.22;;;;;;;;;;5123515;27;20091;-66
2022/11/14 07:28:46;;;;;;;82.07;43.20;;;;;;;;;;5118691;27;20039;-66
2022/11/14 07:31:14;;;;;;;87.63;44.83;;;;;;;;;;5112529;27;20052;-66
2022/11/14 07:33:40;;;;;;;89.22;45.42;;;;;;;;;;5097712;27;20640;-65
2022/11/14 07:36:07;;;;;;;87.13;45.03;;;;;;;;;;5099833;28;20043;-66
2022/11/14 07:38:33;;;;;;;82.00;43.83;;;;;;;;;;5112376;27;20093;-66
2022/11/14 07:41:00;;;;;;;86.55;45.60;;;;;;;;;;5117602;27;20097;-66
2022/11/14 07:43:27;;;;;;;93.45;47.72;;;;;;;;;;5110577;27;20047;-66
2022/11/14 07:45:53;;;;;;;83.28;45.60;;;;;;;;;;5112558;27;20047;-66
2022/11/14 07:48:20;;;;;;;93.32;48.20;;;;;;;;;;5107404;28;20131;-66
2022/11/14 07:50:46;;;;;;;87.40;46.30;;;;;;;;;;5096734;27;20043;-66
2022/11/14 07:53:14;;;;;;;91.30;45.63;;;;;;;;;;5106431;28;20039;-66
2022/11/14 07:55:40;;;;;;;88.25;46.05;;;;;;;;;;5112029;27;20096;-66
2022/11/14 07:58:06;;;;;;;92.50;47.05;;;;;;;;;;5104570;28;20040;-65
2022/11/14 08:00:32;;;;;;;88.32;46.63;;;;;;;;;;5111261;27;20532;-66
2022/11/14 08:02:58;;;;;;;90.00;46.67;;;;;;;;;;5108408;27;20047;-66
2022/11/14 08:05:24;;;;;;;90.43;47.47;;;;;;;;;;5106869;27;20050;-66
2022/11/14 08:07:50;;;;;;;95.25;48.15;;;;;;;;;;5106256;27;20070;-66
2022/11/14 08:10:17;;;;;;;93.10;46.83;;;;;;;;;;5128022;27;20111;-66
2022/11/14 08:12:43;;;;;;;92.00;47.40;;;;;;;;;;5105940;27;20040;-66
2022/11/14 08:15:10;;;;;;;95.20;50.13;;;;;;;;;;5108757;28;20119;-66
2022/11/14 08:17:36;;;;;;;97.93;48.70;;;;;;;;;;5087266;28;20043;-67
2022/11/14 08:20:03;;;;;;;92.82;49.13;;;;;;;;;;5105905;27;20071;-67
2022/11/14 08:22:30;;;;;;;90.75;48.00;;;;;;;;;;5100439;27;20059;-66
2022/11/14 08:24:56;;;;;;;94.50;46.85;;;;;;;;;;5103468;27;20151;-66
2022/11/14 08:27:22;;;;;;;96.30;48.75;;;;;;;;;;5098520;27;20154;-67
2022/11/14 08:29:49;;;;;;;88.70;46.95;;;;;;;;;;5093043;28;20126;-65
2022/11/14 08:32:16;;;;;;;88.63;47.08;;;;;;;;;;5081706;28;20138;-67
2022/11/14 08:34:42;;;;;;;90.65;50.03;;;;;;;;;;5091391;27;20467;-66
2022/11/14 08:37:08;;;;;;;89.90;47.47;;;;;;;;;;5112482;27;20035;-65
2022/11/14 08:39:34;;;;;;;87.60;48.05;;;;;;;;;;5098320;27;20094;-66
2022/11/14 08:42:00;;;;;;;89.18;48.05;;;;;;;;;;5107260;27;21894;-65
2022/11/14 08:44:26;;;;;;;82.45;45.85;;;;;;;;;;5100140;27;20042;-66
2022/11/14 08:46:52;;;;;;;83.47;45.15;;;;;;;;;;5095925;27;20134;-67
2022/11/14 08:49:18;;;;;;;79.28;45.97;;;;;;;;;;5097298;28;21730;-66
2022/11/14 08:51:44;;;;;;;82.85;47.13;;;;;;;;;;5098207;27;20061;-66
2022/11/14 08:54:10;;;;;;;81.90;45.97;;;;;;;;;;5098839;27;20055;-65
2022/11/14 08:56:36;;;;;;;80.63;45.25;;;;;;;;;;5095744;27;20067;-66
2022/11/14 08:59:03;;;;;;;79.78;45.95;;;;;;;;;;5094542;27;20123;-66
2022/11/14 09:01:31;;;;;;;79.60;44.95;;;;;;;;;;5094897;28;20050;-66
2022/11/14 09:03:57;;;;;;;75.20;43.78;;;;;;;;;;5102790;27;20401;-66
2022/11/14 09:06:23;;;;;;;75.53;43.75;;;;;;;;;;5093653;27;20055;-67
2022/11/14 09:08:49;;;;;;;76.15;44.03;;;;;;;;;;5091172;28;20047;-67
2022/11/14 09:11:15;;;;;;;75.88;44.03;;;;;;;;;;5097091;27;20047;-66
2022/11/14 09:13:41;;;;;;;73.97;43.33;;;;;;;;;;5076703;28;20044;-66
2022/11/14 09:16:07;;;;;;;76.38;43.13;;;;;;;;;;5091406;27;20367;-65
2022/11/14 09:18:33;;;;;;;72.70;42.55;;;;;;;;;;5094056;27;20042;-67
2022/11/14 09:21:00;;;;;;;68.57;40.85;;;;;;;;;;5095920;27;20410;-67
2022/11/14 09:23:26;;;;;;;68.30;40.80;;;;;;;;;;5091820;28;20146;-66
2022/11/14 09:25:53;;;;;;;67.70;40.70;;;;;;;;;;5093795;27;20067;-66
2022/11/14 09:28:19;;;;;;;72.88;42.33;;;;;;;;;;5097548;27;20043;-66
2022/11/14 09:30:45;;;;;;;70.00;41.08;;;;;;;;;;5097865;27;20054;-66
2022/11/14 09:33:11;;;;;;;67.70;41.00;;;;;;;;;;5098510;28;20035;-66
2022/11/14 09:35:37;;;;;;;71.95;41.55;;;;;;;;;;5096447;28;20039;-66
2022/11/14 09:38:05;;;;;;;68.10;40.08;;;;;;;;;;5095089;28;20044;-67
2022/11/14 09:40:33;;;;;;;64.03;38.67;;;;;;;;;;5098297;27;20094;-66
2022/11/14 09:43:05;;;;;;;69.80;41.28;;;;;;;;;;5098893;27;21901;-65
2022/11/14 09:45:33;;;;;;;60.72;39.05;;;;;;;;;;5095096;27;20051;-65
2022/11/14 09:48:09;;;;;;;66.97;40.10;;;;;;;;;;5095975;27;20043;-66
2022/11/14 09:50:51;;;;;;;63.42;39.47;;;;;;;;;;5098490;27;20046;-66
2022/11/14 09:53:36;;;;;;;64.72;39.30;;;;;;;;;;5095733;27;20139;-66
2022/11/14 09:56:02;;;;;;;66.72;40.03;;;;;;;;;;5079663;28;20101;-67
2022/11/14 09:58:28;;;;;;;69.15;39.90;;;;;;;;;;5096834;28;20042;-66
2022/11/14 10:00:58;;;;;;;63.08;38.67;;;;;;;;;;5092408;28;20044;-66
2022/11/14 10:03:30;;;;;;;64.65;39.80;;;;;;;;;;5105259;28;20525;-66
2022/11/14 10:06:07;;;;;;;67.47;39.85;;;;;;;;;;5093932;28;20108;-67
2022/11/14 10:08:40;;;;;;;62.15;38.47;;;;;;;;;;5097939;28;20035;-66
2022/11/14 10:11:06;;;;;;;;;;;;;;;;;;5097990;28;20609;-66
2022/11/14 10:13:50;;;;;;;66.18;38.47;;;;;;;;;;5097737;28;19996;-66
2022/11/14 10:16:35;;;;;;;64.20;40.35;;;;;;;;;;5098613;28;20067;-66
2022/11/14 10:19:07;;;;;;;62.63;39.00;;;;;;;;;;5099770;28;20039;-65
2022/11/14 10:21:45;;;;;;;65.50;39.08;;;;;;;;;;5099497;28;20036;-65
2022/11/14 10:24:34;;;;;;;61.95;37.90;;;;;;;;;;5097241;28;20641;-66
2022/11/14 10:27:02;;;;;;;59.40;37.63;;;;;;;;;;5100193;28;20046;-66
2022/11/14 10:29:37;;;;;;;58.38;37.35;;;;;;;;;;5099865;28;20492;-66
2022/11/14 10:32:22;;;;;;;56.33;35.67;;;;;;;;;;5095302;28;20044;-65
2022/11/14 10:34:53;;;;;;;71.35;37.38;;;;;;;;;;5092255;28;20039;-65
2022/11/14 10:37:22;;;;;;;54.67;35.85;;;;;;;;;;5099043;28;20047;-66
2022/11/14 10:39:52;;;;;;;54.40;36.78;;;;;;;;;;5093096;28;20529;-67
2022/11/14 10:42:27;;;;;;;53.50;34.85;;;;;;;;;;5074989;28;20079;-67
2022/11/14 10:44:58;;;;;;;54.58;34.85;;;;;;;;;;5097410;28;20043;-67
2022/11/14 10:47:25;;;;;;;55.70;35.63;;;;;;;;;;5095017;28;20075;-66
2022/11/14 10:49:54;;;;;;;53.28;35.08;;;;;;;;;;5094286;28;20047;-65
2022/11/14 10:52:22;;;;;;;51.90;34.53;;;;;;;;;;5100057;28;20104;-66
2022/11/14 10:54:47;;;;;;;55.80;34.08;;;;;;;;;;5096298;28;22166;-66
2022/11/14 10:57:18;;;;;;;53.03;34.83;;;;;;;;;;5100576;28;20043;-66
2022/11/14 10:59:44;;;;;;;53.03;34.10;;;;;;;;;;5097493;28;20050;-66
2022/11/14 11:02:10;;;;;;;50.97;34.75;;;;;;;;;;5094902;28;20066;-67
2022/11/14 11:04:40;;;;;;;50.17;32.85;;;;;;;;;;5098852;28;20397;-66
2022/11/14 11:07:06;;;;;;;50.33;33.38;;;;;;;;;;5091707;28;20447;-66
2022/11/14 11:12:22;;;;;;;52.83;33.25;;;;;;;;;;5097394;28;20083;-66
2022/11/14 11:14:49;;;;;;;49.97;34.20;;;;;;;;;;5094480;28;20054;-65
2022/11/14 11:17:20;;;;;;;47.05;33.03;;;;;;;;;;5097393;28;20182;-66
2022/11/14 11:19:47;;;;;;;45.03;31.77;;;;;;;;;;5096025;28;20088;-66
2022/11/14 11:22:30;;;;;;;49.30;31.85;;;;;;;;;;5098377;27;20063;-66
2022/11/14 11:24:56;;;;;;;;;;;;;;;;;;5104809;27;20115;-66
2022/11/14 11:27:23;;;;;;;46.58;31.15;;;;;;;;;;5095126;28;20370;-66
2022/11/14 11:30:10;;;;;;;41.05;30.38;;;;;;;;;;5096770;27;20096;-66
2022/11/14 11:32:36;;;;;;;44.80;30.33;;;;;;;;;;5083292;27;20051;-66
2022/11/14 11:35:02;;;;;;;42.38;29.52;;;;;;;;;;5102727;27;20563;-67
2022/11/14 11:37:53;;;;;;;40.95;28.88;;;;;;;;;;5097906;27;20402;-68
2022/11/14 11:40:20;;;;;;;40.03;28.15;;;;;;;;;;5081837;27;20108;-67
2022/11/14 11:42:58;;;;;;;38.90;27.67;;;;;;;;;;5096985;28;20397;-67
2022/11/14 11:45:24;;;;;;;37.40;27.35;;;;;;;;;;5101085;28;20598;-66
2022/11/14 11:48:01;;;;;;;37.50;27.05;;;;;;;;;;5104152;28;20047;-65
2022/11/14 11:50:27;;;;;;;35.00;26.10;;;;;;;;;;5080401;27;20406;-66
2022/11/14 11:53:01;;;;;;;34.83;26.55;;;;;;;;;;5102549;27;20069;-66
2022/11/14 11:55:31;;;;;;;36.05;27.02;;;;;;;;;;5103288;27;20055;-66
2022/11/14 11:58:01;;;;;;;34.55;26.17;;;;;;;;;;5100836;27;20092;-66
2022/11/14 12:00:28;;;;;;;36.25;26.60;;;;;;;;;;5101218;27;20925;-67
2022/11/14 12:02:54;;;;;;;31.88;24.38;;;;;;;;;;5098036;27;20044;-66
2022/11/14 12:05:25;;;;;;;33.80;23.70;;;;;;;;;;5094914;28;20093;-66
2022/11/14 12:07:59;;;;;;;30.77;24.70;;;;;;;;;;5101566;28;20059;-65
2022/11/14 12:10:27;;;;;;;31.08;22.95;;;;;;;;;;5090997;27;20050;-66
2022/11/14 12:13:12;;;;;;;30.67;22.90;;;;;;;;;;5095169;28;20133;-67
2022/11/14 12:15:50;;;;;;;27.77;22.30;;;;;;;;;;5093928;28;20448;-66
2022/11/14 12:18:19;;;;;;;28.77;21.98;;;;;;;;;;5096948;27;20444;-67
2022/11/14 12:20:45;;;;;;;31.23;22.58;;;;;;;;;;5096445;27;20411;-68
2022/11/14 12:23:20;;;;;;;30.42;21.50;;;;;;;;;;5100601;27;20061;-66
2022/11/14 12:26:02;;;;;;;28.80;21.35;;;;;;;;;;5098783;27;20048;-67
2022/11/14 12:28:33;;;;;;;61.47;21.58;;;;;;;;;;5100431;27;20043;-66
2022/11/14 12:31:01;;;;;;;25.88;20.40;;;;;;;;;;5100150;27;20047;-67
2022/11/14 12:33:30;;;;;;;25.25;20.77;;;;;;;;;;5099456;27;20048;-69
2022/11/14 12:35:58;;;;;;;26.58;20.80;;;;;;;;;;5099051;27;20066;-67
2022/11/14 12:38:24;;;;;;;28.63;21.05;;;;;;;;;;5098147;28;20525;-68
2022/11/14 12:40:52;;;;;;;28.35;20.35;;;;;;;;;;5097954;27;20048;-66
2022/11/14 12:43:24;;;;;;;27.42;19.67;;;;;;;;;;5097508;27;20052;-67
2022/11/14 12:45:50;;;;;;;23.75;18.90;;;;;;;;;;5096132;28;20035;-66
2022/11/14 12:48:25;;;;;;;26.23;20.42;;;;;;;;;;5095526;27;20058;-67
2022/11/14 12:50:52;;;;;;;24.33;19.20;;;;;;;;;;5096389;27;20398;-67
2022/11/14 12:53:36;;;;;;;24.20;19.35;;;;;;;;;;5097960;27;20080;-67
2022/11/14 12:56:02;;;;;;;26.30;18.27;;;;;;;;;;5096953;27;20057;-67
2022/11/14 12:58:43;;;;;;;23.38;18.50;;;;;;;;;;5097089;27;20041;-67
2022/11/14 13:01:28;;;;;;;22.65;18.83;;;;;;;;;;5094713;27;20126;-66
2022/11/14 13:04:06;;;;;;;22.42;18.35;;;;;;;;;;5100198;28;20044;-66
2022/11/14 13:06:51;;;;;;;21.23;17.63;;;;;;;;;;5097249;28;20048;-67
2022/11/14 13:09:25;;;;;;;20.63;16.75;;;;;;;;;;5098827;28;20486;-67
2022/11/14 13:23:27;;;;;;;19.53;16.67;;;;;;;;;;5099684;27;20043;-67
2022/11/14 13:26:12;;;;;;;20.15;15.98;;;;;;;;;;5105680;27;20125;-67
2022/11/14 13:28:38;;;;;;;19.42;16.38;;;;;;;;;;5099384;27;20040;-66
2022/11/14 13:31:05;;;;;;;17.85;15.18;;;;;;;;;;5100064;27;20047;-66
2022/11/14 13:33:40;;;;;;;20.33;16.65;;;;;;;;;;5096307;27;20131;-66
2022/11/14 13:36:08;;;;;;;18.80;15.30;;;;;;;;;;5093072;27;20036;-66
2022/11/14 13:38:44;;;;;;;20.38;16.10;;;;;;;;;;5097888;27;20048;-67
2022/11/14 13:41:13;;;;;;;17.15;14.80;;;;;;;;;;5093910;28;20054;-67
2022/11/14 13:43:51;;;;;;;17.10;14.85;;;;;;;;;;5095141;28;20089;-66
2022/11/14 13:46:33;;;;;;;18.27;15.63;;;;;;;;;;5092952;27;20072;-67
2022/11/14 13:48:59;;;;;;;20.65;16.33;;;;;;;;;;5092724;28;20054;-65
2022/11/14 13:51:25;;;;;;;20.45;16.20;;;;;;;;;;5087914;27;20039;-66
2022/11/14 13:53:52;;;;;;;18.27;15.15;;;;;;;;;;5097545;27;20044;-67
2022/11/14 13:56:30;;;;;;;20.17;17.10;;;;;;;;;;5094201;27;20062;-65
2022/11/14 13:59:13;;;;;;;19.85;15.77;;;;;;;;;;5095135;28;20048;-66
2022/11/14 14:02:01;;;;;;;19.58;15.88;;;;;;;;;;5096182;28;20099;-66
2022/11/14 14:04:39;;;;;;;19.95;16.30;;;;;;;;;;5079826;28;20043;-65
2022/11/14 14:07:14;;;;;;;21.77;16.52;;;;;;;;;;5100717;28;20044;-66
2022/11/14 14:09:49;;;;;;;18.80;16.02;;;;;;;;;;5095014;28;20042;-68
2022/11/14 14:12:21;;;;;;;19.05;15.70;;;;;;;;;;5092892;28;20044;-66
2022/11/14 14:14:59;;;;;;;18.10;16.13;;;;;;;;;;5088863;28;20406;-66
2022/11/14 14:17:34;;;;;;;21.08;16.23;;;;;;;;;;5095142;28;20050;-66
2022/11/14 14:20:19;;;;;;;17.88;15.70;;;;;;;;;;5098095;28;20036;-66
2022/11/14 14:22:51;;;;;;;18.85;15.95;;;;;;;;;;5091559;28;20046;-65
2022/11/14 14:25:27;;;;;;;18.17;15.35;;;;;;;;;;5093539;28;20047;-65
2022/11/14 14:28:13;;;;;;;19.10;15.30;;;;;;;;;;5097240;28;20107;-66
2022/11/14 14:30:39;;;;;;;19.50;15.75;;;;;;;;;;5096315;28;20402;-65
2022/11/14 14:33:10;;;;;;;20.30;16.02;;;;;;;;;;5091760;27;20074;-67
2022/11/14 14:35:38;;;;;;;20.38;16.27;;;;;;;;;;5096691;28;20043;-65
2022/11/14 14:38:09;;;;;;;20.60;16.35;;;;;;;;;;5091643;28;20067;-66
2022/11/14 14:40:36;;;;;;;19.85;16.48;;;;;;;;;;5095237;28;20109;-65